sensor_id;sensor_type;location;lat;lon;timestamp;P1;durP1;ratioP1;P2;durP2;ratioP2
76117;SDS011;64851;50.232;20.364;2024-03-02T00:01:45;28.90;;;14.20;;
76117;SDS011;64851;50.232;20.364;2024-03-02T00:04:28;28.60;;;13.10;;
76117;SDS011;64851;50.232;20.364;2024-03-02T00:07:16;25.70;;;12.40;;
76117;SDS011;64851;50.232;20.364;2024-03-02T00:09:53;26.90;;;13.20;;
76117;SDS011;64851;50.232;20.364;2024-03-02T00:12:41;26.30;;;12.70;;
76117;SDS011;64851;50.232;20.364;2024-03-02T00:15:33;27.20;;;12.90;;
76117;SDS011;64851;50.232;20.364;2024-03-02T00:18:32;25.10;;;11.60;;
76117;SDS011;64851;50.232;20.364;2024-03-02T00:21:08;24.80;;;13.10;;
76117;SDS011;64851;50.232;20.364;2024-03-02T00:24:01;24.40;;;12.40;;
76117;SDS011;64851;50.232;20.364;2024-03-02T00:26:44;22.50;;;11.00;;
76117;SDS011;64851;50.232;20.364;2024-03-02T00:29:33;21.70;;;11.20;;
76117;SDS011;64851;50.232;20.364;2024-03-02T00:32:12;21.20;;;11.30;;
76117;SDS011;64851;50.232;20.364;2024-03-02T00:35:01;23.60;;;11.80;;
76117;SDS011;64851;50.232;20.364;2024-03-02T00:37:36;22.90;;;11.60;;
76117;SDS011;64851;50.232;20.364;2024-03-02T00:40:27;19.30;;;9.50;;
76117;SDS011;64851;50.232;20.364;2024-03-02T00:43:03;22.40;;;11.00;;
76117;SDS011;64851;50.232;20.364;2024-03-02T00:45:59;20.10;;;10.50;;
76117;SDS011;64851;50.232;20.364;2024-03-02T00:48:58;22.90;;;11.20;;
76117;SDS011;64851;50.232;20.364;2024-03-02T00:51:35;21.90;;;10.30;;
76117;SDS011;64851;50.232;20.364;2024-03-02T00:54:30;22.60;;;10.50;;
76117;SDS011;64851;50.232;20.364;2024-03-02T00:57:25;22.50;;;10.90;;
76117;SDS011;64851;50.232;20.364;2024-03-02T01:00:08;24.30;;;11.80;;
76117;SDS011;64851;50.232;20.364;2024-03-02T01:02:52;17.10;;;8.30;;
76117;SDS011;64851;50.232;20.364;2024-03-02T01:05:43;20.00;;;8.70;;
76117;SDS011;64851;50.232;20.364;2024-03-02T01:08:39;23.00;;;11.80;;
76117;SDS011;64851;50.232;20.364;2024-03-02T01:11:40;22.00;;;10.80;;
76117;SDS011;64851;50.232;20.364;2024-03-02T01:14:15;21.00;;;10.30;;
76117;SDS011;64851;50.232;20.364;2024-03-02T01:17:03;24.50;;;10.70;;
76117;SDS011;64851;50.232;20.364;2024-03-02T01:19:41;23.10;;;12.20;;
76117;SDS011;64851;50.232;20.364;2024-03-02T01:22:31;20.90;;;10.10;;
76117;SDS011;64851;50.232;20.364;2024-03-02T01:25:05;29.00;;;12.60;;
76117;SDS011;64851;50.232;20.364;2024-03-02T01:27:56;21.10;;;10.90;;
76117;SDS011;64851;50.232;20.364;2024-03-02T01:30:30;22.70;;;10.70;;
76117;SDS011;64851;50.232;20.364;2024-03-02T01:33:26;21.00;;;10.70;;
76117;SDS011;64851;50.232;20.364;2024-03-02T01:36:21;22.80;;;11.40;;
76117;SDS011;64851;50.232;20.364;2024-03-02T01:38:55;20.10;;;10.60;;
76117;SDS011;64851;50.232;20.364;2024-03-02T01:41:45;21.70;;;10.40;;
76117;SDS011;64851;50.232;20.364;2024-03-02T01:44:20;23.00;;;10.20;;
76117;SDS011;64851;50.232;20.364;2024-03-02T01:47:16;23.10;;;11.70;;
76117;SDS011;64851;50.232;20.364;2024-03-02T01:49:50;19.40;;;10.80;;
76117;SDS011;64851;50.232;20.364;2024-03-02T01:52:39;22.20;;;10.20;;
76117;SDS011;64851;50.232;20.364;2024-03-02T01:55:20;18.10;;;8.50;;
76117;SDS011;64851;50.232;20.364;2024-03-02T01:58:04;14.40;;;7.20;;
76117;SDS011;64851;50.232;20.364;2024-03-02T02:00:45;19.90;;;9.10;;
76117;SDS011;64851;50.232;20.364;2024-03-02T02:03:27;16.00;;;8.70;;
76117;SDS011;64851;50.232;20.364;2024-03-02T02:06:11;18.60;;;9.80;;
76117;SDS011;64851;50.232;20.364;2024-03-02T02:09:06;24.10;;;12.00;;
76117;SDS011;64851;50.232;20.364;2024-03-02T02:12:01;26.80;;;12.10;;
76117;SDS011;64851;50.232;20.364;2024-03-02T02:14:49;23.10;;;10.90;;
76117;SDS011;64851;50.232;20.364;2024-03-02T02:17:31;22.50;;;9.30;;
76117;SDS011;64851;50.232;20.364;2024-03-02T02:20:12;21.80;;;10.20;;
76117;SDS011;64851;50.232;20.364;2024-03-02T02:23:05;23.80;;;10.40;;
76117;SDS011;64851;50.232;20.364;2024-03-02T02:25:43;16.50;;;9.10;;
76117;SDS011;64851;50.232;20.364;2024-03-02T02:28:31;19.40;;;9.10;;
76117;SDS011;64851;50.232;20.364;2024-03-02T02:31:06;18.50;;;9.70;;
76117;SDS011;64851;50.232;20.364;2024-03-02T02:33:54;17.30;;;8.60;;
76117;SDS011;64851;50.232;20.364;2024-03-02T02:36:29;24.70;;;11.10;;
76117;SDS011;64851;50.232;20.364;2024-03-02T02:39:17;21.20;;;10.80;;
76117;SDS011;64851;50.232;20.364;2024-03-02T02:41:53;19.50;;;10.10;;
76117;SDS011;64851;50.232;20.364;2024-03-02T02:44:42;18.10;;;9.70;;
76117;SDS011;64851;50.232;20.364;2024-03-02T02:47:16;21.20;;;9.20;;
76117;SDS011;64851;50.232;20.364;2024-03-02T02:50:11;15.30;;;7.30;;
76117;SDS011;64851;50.232;20.364;2024-03-02T02:52:53;19.80;;;10.80;;
76117;SDS011;64851;50.232;20.364;2024-03-02T02:55:34;10.70;;;7.60;;
76117;SDS011;64851;50.232;20.364;2024-03-02T02:58:15;27.30;;;12.00;;
76117;SDS011;64851;50.232;20.364;2024-03-02T03:01:03;18.80;;;10.70;;
76117;SDS011;64851;50.232;20.364;2024-03-02T03:03:39;19.70;;;9.80;;
76117;SDS011;64851;50.232;20.364;2024-03-02T03:06:28;21.00;;;10.70;;
76117;SDS011;64851;50.232;20.364;2024-03-02T03:09:24;21.70;;;10.70;;
76117;SDS011;64851;50.232;20.364;2024-03-02T03:11:58;21.40;;;12.10;;
76117;SDS011;64851;50.232;20.364;2024-03-02T03:14:48;19.20;;;9.50;;
76117;SDS011;64851;50.232;20.364;2024-03-02T03:17:23;20.20;;;9.50;;
76117;SDS011;64851;50.232;20.364;2024-03-02T03:20:13;16.90;;;9.00;;
76117;SDS011;64851;50.232;20.364;2024-03-02T03:22:48;20.30;;;9.70;;
76117;SDS011;64851;50.232;20.364;2024-03-02T03:25:37;21.80;;;11.60;;
76117;SDS011;64851;50.232;20.364;2024-03-02T03:28:11;21.30;;;10.80;;
76117;SDS011;64851;50.232;20.364;2024-03-02T03:31:00;22.00;;;11.00;;
76117;SDS011;64851;50.232;20.364;2024-03-02T03:33:34;21.30;;;10.70;;
76117;SDS011;64851;50.232;20.364;2024-03-02T03:36:30;18.10;;;9.10;;
76117;SDS011;64851;50.232;20.364;2024-03-02T03:39:25;18.60;;;9.80;;
76117;SDS011;64851;50.232;20.364;2024-03-02T03:42:21;18.60;;;10.00;;
76117;SDS011;64851;50.232;20.364;2024-03-02T03:44:55;18.50;;;9.70;;
76117;SDS011;64851;50.232;20.364;2024-03-02T03:47:44;22.00;;;9.20;;
76117;SDS011;64851;50.232;20.364;2024-03-02T03:50:19;20.20;;;8.90;;
76117;SDS011;64851;50.232;20.364;2024-03-02T03:53:08;20.90;;;10.80;;
76117;SDS011;64851;50.232;20.364;2024-03-02T03:55:49;18.40;;;9.10;;
76117;SDS011;64851;50.232;20.364;2024-03-02T03:58:31;21.40;;;9.70;;
76117;SDS011;64851;50.232;20.364;2024-03-02T04:01:13;19.00;;;9.30;;
76117;SDS011;64851;50.232;20.364;2024-03-02T04:04:03;18.70;;;8.00;;
76117;SDS011;64851;50.232;20.364;2024-03-02T04:06:38;15.80;;;8.40;;
76117;SDS011;64851;50.232;20.364;2024-03-02T04:09:26;18.70;;;8.70;;
76117;SDS011;64851;50.232;20.364;2024-03-02T04:12:01;20.50;;;10.20;;
76117;SDS011;64851;50.232;20.364;2024-03-02T04:14:50;15.80;;;7.80;;
76117;SDS011;64851;50.232;20.364;2024-03-02T04:17:25;19.20;;;8.00;;
76117;SDS011;64851;50.232;20.364;2024-03-02T04:20:13;19.00;;;9.20;;
76117;SDS011;64851;50.232;20.364;2024-03-02T04:22:48;19.50;;;9.00;;
76117;SDS011;64851;50.232;20.364;2024-03-02T04:25:36;18.10;;;10.20;;
76117;SDS011;64851;50.232;20.364;2024-03-02T04:28:11;21.20;;;10.00;;
76117;SDS011;64851;50.232;20.364;2024-03-02T04:30:59;18.70;;;9.30;;
76117;SDS011;64851;50.232;20.364;2024-03-02T04:33:34;18.80;;;9.40;;
76117;SDS011;64851;50.232;20.364;2024-03-02T04:36:22;22.10;;;10.60;;
76117;SDS011;64851;50.232;20.364;2024-03-02T04:39:04;19.70;;;10.30;;
76117;SDS011;64851;50.232;20.364;2024-03-02T04:41:45;21.30;;;11.10;;
76117;SDS011;64851;50.232;20.364;2024-03-02T04:44:26;15.40;;;8.20;;
76117;SDS011;64851;50.232;20.364;2024-03-02T04:47:14;23.00;;;10.80;;
76117;SDS011;64851;50.232;20.364;2024-03-02T04:49:48;16.90;;;8.60;;
76117;SDS011;64851;50.232;20.364;2024-03-02T04:52:36;21.80;;;8.90;;
76117;SDS011;64851;50.232;20.364;2024-03-02T04:55:11;17.50;;;7.20;;
76117;SDS011;64851;50.232;20.364;2024-03-02T04:58:08;21.70;;;10.30;;
76117;SDS011;64851;50.232;20.364;2024-03-02T05:00:49;17.10;;;8.90;;
76117;SDS011;64851;50.232;20.364;2024-03-02T05:03:31;17.90;;;8.90;;
76117;SDS011;64851;50.232;20.364;2024-03-02T05:06:12;18.60;;;9.10;;
76117;SDS011;64851;50.232;20.364;2024-03-02T05:09:08;15.30;;;7.80;;
76117;SDS011;64851;50.232;20.364;2024-03-02T05:12:03;20.50;;;10.80;;
76117;SDS011;64851;50.232;20.364;2024-03-02T05:15:16;17.40;;;9.10;;
76117;SDS011;64851;50.232;20.364;2024-03-02T05:18:11;16.80;;;9.30;;
76117;SDS011;64851;50.232;20.364;2024-03-02T05:21:06;19.50;;;9.80;;
76117;SDS011;64851;50.232;20.364;2024-03-02T05:23:40;19.50;;;9.80;;
76117;SDS011;64851;50.232;20.364;2024-03-02T05:26:29;20.90;;;10.10;;
76117;SDS011;64851;50.232;20.364;2024-03-02T05:29:03;19.90;;;9.40;;
76117;SDS011;64851;50.232;20.364;2024-03-02T05:31:52;24.70;;;12.60;;
76117;SDS011;64851;50.232;20.364;2024-03-02T05:34:26;22.50;;;11.20;;
76117;SDS011;64851;50.232;20.364;2024-03-02T05:37:17;23.90;;;11.80;;
76117;SDS011;64851;50.232;20.364;2024-03-02T05:39:52;19.60;;;10.80;;
76117;SDS011;64851;50.232;20.364;2024-03-02T05:42:41;18.50;;;9.20;;
76117;SDS011;64851;50.232;20.364;2024-03-02T05:45:15;26.50;;;13.10;;
76117;SDS011;64851;50.232;20.364;2024-03-02T05:48:11;25.00;;;12.60;;
76117;SDS011;64851;50.232;20.364;2024-03-02T05:51:07;24.00;;;10.80;;
76117;SDS011;64851;50.232;20.364;2024-03-02T05:53:42;21.00;;;10.90;;
76117;SDS011;64851;50.232;20.364;2024-03-02T05:56:38;25.80;;;11.80;;
76117;SDS011;64851;50.232;20.364;2024-03-02T05:59:33;31.80;;;14.30;;
76117;SDS011;64851;50.232;20.364;2024-03-02T06:02:07;25.60;;;11.80;;
76117;SDS011;64851;50.232;20.364;2024-03-02T06:04:56;19.20;;;9.90;;
76117;SDS011;64851;50.232;20.364;2024-03-02T06:07:31;15.10;;;6.90;;
76117;SDS011;64851;50.232;20.364;2024-03-02T06:10:19;20.80;;;10.00;;
76117;SDS011;64851;50.232;20.364;2024-03-02T06:12:53;22.40;;;11.30;;
76117;SDS011;64851;50.232;20.364;2024-03-02T06:15:49;15.90;;;6.80;;
76117;SDS011;64851;50.232;20.364;2024-03-02T06:18:44;25.10;;;12.50;;
76117;SDS011;64851;50.232;20.364;2024-03-02T06:21:18;22.40;;;10.60;;
76117;SDS011;64851;50.232;20.364;2024-03-02T06:24:07;21.50;;;10.00;;
76117;SDS011;64851;50.232;20.364;2024-03-02T06:26:48;27.90;;;12.80;;
76117;SDS011;64851;50.232;20.364;2024-03-02T06:29:36;29.30;;;12.20;;
76117;SDS011;64851;50.232;20.364;2024-03-02T06:32:11;23.20;;;11.80;;
76117;SDS011;64851;50.232;20.364;2024-03-02T06:34:59;19.80;;;10.30;;
76117;SDS011;64851;50.232;20.364;2024-03-02T06:37:40;19.00;;;9.60;;
76117;SDS011;64851;50.232;20.364;2024-03-02T06:40:22;19.70;;;10.10;;
76117;SDS011;64851;50.232;20.364;2024-03-02T06:43:03;21.10;;;9.90;;
76117;SDS011;64851;50.232;20.364;2024-03-02T06:45:44;17.50;;;8.30;;
76117;SDS011;64851;50.232;20.364;2024-03-02T06:48:25;18.30;;;9.20;;
76117;SDS011;64851;50.232;20.364;2024-03-02T06:51:07;19.70;;;10.00;;
76117;SDS011;64851;50.232;20.364;2024-03-02T06:53:48;19.80;;;9.20;;
76117;SDS011;64851;50.232;20.364;2024-03-02T06:56:36;17.70;;;10.40;;
76117;SDS011;64851;50.232;20.364;2024-03-02T06:59:12;16.80;;;8.70;;
76117;SDS011;64851;50.232;20.364;2024-03-02T07:02:00;16.20;;;9.70;;
76117;SDS011;64851;50.232;20.364;2024-03-02T07:04:35;21.30;;;11.20;;
76117;SDS011;64851;50.232;20.364;2024-03-02T07:07:30;23.10;;;11.80;;
76117;SDS011;64851;50.232;20.364;2024-03-02T07:10:07;19.00;;;11.30;;
76117;SDS011;64851;50.232;20.364;2024-03-02T07:12:56;21.70;;;11.50;;
76117;SDS011;64851;50.232;20.364;2024-03-02T07:15:30;19.90;;;11.20;;
76117;SDS011;64851;50.232;20.364;2024-03-02T07:18:48;18.90;;;9.60;;
76117;SDS011;64851;50.232;20.364;2024-03-02T07:21:26;21.10;;;10.80;;
76117;SDS011;64851;50.232;20.364;2024-03-02T07:24:14;22.20;;;11.90;;
76117;SDS011;64851;50.232;20.364;2024-03-02T07:26:51;21.90;;;10.50;;
76117;SDS011;64851;50.232;20.364;2024-03-02T07:29:40;20.10;;;11.30;;
76117;SDS011;64851;50.232;20.364;2024-03-02T07:32:14;20.40;;;11.60;;
76117;SDS011;64851;50.232;20.364;2024-03-02T07:35:03;18.70;;;9.20;;
76117;SDS011;64851;50.232;20.364;2024-03-02T07:37:38;18.90;;;9.90;;
76117;SDS011;64851;50.232;20.364;2024-03-02T07:40:28;17.20;;;10.10;;
76117;SDS011;64851;50.232;20.364;2024-03-02T07:43:04;20.80;;;11.00;;
76117;SDS011;64851;50.232;20.364;2024-03-02T07:45:53;25.30;;;12.30;;
76117;SDS011;64851;50.232;20.364;2024-03-02T07:48:28;23.10;;;12.30;;
76117;SDS011;64851;50.232;20.364;2024-03-02T07:51:17;18.20;;;9.30;;
76117;SDS011;64851;50.232;20.364;2024-03-02T07:53:51;25.20;;;12.10;;
76117;SDS011;64851;50.232;20.364;2024-03-02T07:56:47;24.80;;;12.70;;
76117;SDS011;64851;50.232;20.364;2024-03-02T07:59:42;20.60;;;10.30;;
76117;SDS011;64851;50.232;20.364;2024-03-02T08:02:17;18.70;;;9.50;;
76117;SDS011;64851;50.232;20.364;2024-03-02T08:05:06;20.30;;;10.10;;
76117;SDS011;64851;50.232;20.364;2024-03-02T08:07:43;17.60;;;9.70;;
76117;SDS011;64851;50.232;20.364;2024-03-02T08:10:34;21.20;;;11.10;;
76117;SDS011;64851;50.232;20.364;2024-03-02T08:13:08;19.00;;;10.00;;
76117;SDS011;64851;50.232;20.364;2024-03-02T08:15:57;21.50;;;10.80;;
76117;SDS011;64851;50.232;20.364;2024-03-02T08:18:31;22.60;;;11.50;;
76117;SDS011;64851;50.232;20.364;2024-03-02T08:21:20;18.50;;;11.00;;
76117;SDS011;64851;50.232;20.364;2024-03-02T08:23:54;18.20;;;10.70;;
76117;SDS011;64851;50.232;20.364;2024-03-02T08:26:43;21.70;;;11.00;;
76117;SDS011;64851;50.232;20.364;2024-03-02T08:29:17;22.30;;;10.60;;
76117;SDS011;64851;50.232;20.364;2024-03-02T08:32:06;21.80;;;11.30;;
76117;SDS011;64851;50.232;20.364;2024-03-02T08:34:42;23.00;;;11.60;;
76117;SDS011;64851;50.232;20.364;2024-03-02T08:37:39;21.50;;;10.80;;
76117;SDS011;64851;50.232;20.364;2024-03-02T08:40:36;15.90;;;9.10;;
76117;SDS011;64851;50.232;20.364;2024-03-02T08:43:10;17.10;;;9.30;;
76117;SDS011;64851;50.232;20.364;2024-03-02T08:45:59;22.30;;;12.60;;
76117;SDS011;64851;50.232;20.364;2024-03-02T08:48:34;24.70;;;12.50;;
76117;SDS011;64851;50.232;20.364;2024-03-02T08:51:22;21.50;;;12.10;;
76117;SDS011;64851;50.232;20.364;2024-03-02T08:53:58;17.50;;;9.00;;
76117;SDS011;64851;50.232;20.364;2024-03-02T08:56:47;22.20;;;11.40;;
76117;SDS011;64851;50.232;20.364;2024-03-02T08:59:22;20.10;;;9.60;;
76117;SDS011;64851;50.232;20.364;2024-03-02T09:02:18;23.00;;;11.30;;
76117;SDS011;64851;50.232;20.364;2024-03-02T09:05:13;19.80;;;9.90;;
76117;SDS011;64851;50.232;20.364;2024-03-02T09:08:08;23.10;;;12.10;;
76117;SDS011;64851;50.232;20.364;2024-03-02T09:11:03;22.90;;;12.30;;
76117;SDS011;64851;50.232;20.364;2024-03-02T09:13:58;24.60;;;11.60;;
76117;SDS011;64851;50.232;20.364;2024-03-02T09:16:53;19.70;;;9.50;;
76117;SDS011;64851;50.232;20.364;2024-03-02T09:19:48;22.90;;;11.70;;
76117;SDS011;64851;50.232;20.364;2024-03-02T09:22:22;22.40;;;11.40;;
76117;SDS011;64851;50.232;20.364;2024-03-02T09:25:11;23.10;;;11.40;;
76117;SDS011;64851;50.232;20.364;2024-03-02T09:27:45;24.20;;;13.10;;
76117;SDS011;64851;50.232;20.364;2024-03-02T09:30:34;23.60;;;13.50;;
76117;SDS011;64851;50.232;20.364;2024-03-02T09:33:08;22.50;;;12.00;;
76117;SDS011;64851;50.232;20.364;2024-03-02T09:35:59;23.10;;;14.20;;
76117;SDS011;64851;50.232;20.364;2024-03-02T09:38:41;23.10;;;12.60;;
76117;SDS011;64851;50.232;20.364;2024-03-02T09:41:22;25.10;;;14.70;;
76117;SDS011;64851;50.232;20.364;2024-03-02T09:44:03;23.50;;;13.20;;
76117;SDS011;64851;50.232;20.364;2024-03-02T09:46:48;26.40;;;12.50;;
76117;SDS011;64851;50.232;20.364;2024-03-02T09:49:30;23.80;;;14.00;;
76117;SDS011;64851;50.232;20.364;2024-03-02T09:52:18;35.40;;;16.10;;
76117;SDS011;64851;50.232;20.364;2024-03-02T09:54:53;36.50;;;16.40;;
76117;SDS011;64851;50.232;20.364;2024-03-02T09:57:42;27.00;;;14.20;;
76117;SDS011;64851;50.232;20.364;2024-03-02T10:00:24;26.20;;;13.90;;
76117;SDS011;64851;50.232;20.364;2024-03-02T10:03:10;25.30;;;13.30;;
76117;SDS011;64851;50.232;20.364;2024-03-02T10:05:53;70.30;;;31.50;;
76117;SDS011;64851;50.232;20.364;2024-03-02T10:08:44;117.40;;;52.10;;
76117;SDS011;64851;50.232;20.364;2024-03-02T10:11:26;52.30;;;26.30;;
76117;SDS011;64851;50.232;20.364;2024-03-02T10:14:20;24.70;;;13.10;;
76117;SDS011;64851;50.232;20.364;2024-03-02T10:16:54;26.40;;;13.50;;
76117;SDS011;64851;50.232;20.364;2024-03-02T10:19:50;28.30;;;14.50;;
76117;SDS011;64851;50.232;20.364;2024-03-02T10:22:25;28.00;;;14.90;;
76117;SDS011;64851;50.232;20.364;2024-03-02T10:25:27;16.90;;;9.30;;
76117;SDS011;64851;50.232;20.364;2024-03-02T10:28:20;28.10;;;14.40;;
76117;SDS011;64851;50.232;20.364;2024-03-02T10:31:16;26.50;;;14.00;;
76117;SDS011;64851;50.232;20.364;2024-03-02T10:33:51;25.80;;;13.80;;
76117;SDS011;64851;50.232;20.364;2024-03-02T10:36:40;26.10;;;13.50;;
76117;SDS011;64851;50.232;20.364;2024-03-02T10:39:16;24.50;;;12.30;;
76117;SDS011;64851;50.232;20.364;2024-03-02T10:42:08;28.00;;;14.50;;
76117;SDS011;64851;50.232;20.364;2024-03-02T10:44:42;28.70;;;16.40;;
76117;SDS011;64851;50.232;20.364;2024-03-02T10:47:31;27.30;;;15.90;;
76117;SDS011;64851;50.232;20.364;2024-03-02T10:50:07;23.50;;;12.70;;
76117;SDS011;64851;50.232;20.364;2024-03-02T10:52:55;22.10;;;12.90;;
76117;SDS011;64851;50.232;20.364;2024-03-02T10:55:30;31.80;;;17.20;;
76117;SDS011;64851;50.232;20.364;2024-03-02T10:58:19;28.10;;;16.50;;
76117;SDS011;64851;50.232;20.364;2024-03-02T11:00:55;25.10;;;14.80;;
76117;SDS011;64851;50.232;20.364;2024-03-02T11:03:45;21.60;;;12.30;;
76117;SDS011;64851;50.232;20.364;2024-03-02T11:06:19;20.70;;;11.90;;
76117;SDS011;64851;50.232;20.364;2024-03-02T11:09:13;22.20;;;12.80;;
76117;SDS011;64851;50.232;20.364;2024-03-02T11:11:49;21.30;;;11.30;;
76117;SDS011;64851;50.232;20.364;2024-03-02T11:14:50;20.80;;;12.30;;
76117;SDS011;64851;50.232;20.364;2024-03-02T11:17:46;20.80;;;11.90;;
76117;SDS011;64851;50.232;20.364;2024-03-02T11:20:21;22.30;;;12.50;;
76117;SDS011;64851;50.232;20.364;2024-03-02T11:23:11;21.90;;;12.60;;
76117;SDS011;64851;50.232;20.364;2024-03-02T11:25:46;23.80;;;13.90;;
76117;SDS011;64851;50.232;20.364;2024-03-02T11:28:36;20.60;;;12.30;;
76117;SDS011;64851;50.232;20.364;2024-03-02T11:31:12;19.00;;;11.10;;
76117;SDS011;64851;50.232;20.364;2024-03-02T11:34:16;23.60;;;13.00;;
76117;SDS011;64851;50.232;20.364;2024-03-02T11:36:52;22.90;;;13.10;;
76117;SDS011;64851;50.232;20.364;2024-03-02T11:39:43;23.40;;;13.30;;
76117;SDS011;64851;50.232;20.364;2024-03-02T11:45:10;21.80;;;12.90;;
76117;SDS011;64851;50.232;20.364;2024-03-02T11:47:55;26.20;;;13.50;;
76117;SDS011;64851;50.232;20.364;2024-03-02T11:50:52;21.80;;;13.50;;
76117;SDS011;64851;50.232;20.364;2024-03-02T11:53:28;25.00;;;14.70;;
76117;SDS011;64851;50.232;20.364;2024-03-02T11:56:17;23.80;;;13.20;;
76117;SDS011;64851;50.232;20.364;2024-03-02T11:58:54;23.40;;;11.80;;
76117;SDS011;64851;50.232;20.364;2024-03-02T12:01:42;23.40;;;14.10;;
76117;SDS011;64851;50.232;20.364;2024-03-02T12:04:18;20.60;;;12.90;;
76117;SDS011;64851;50.232;20.364;2024-03-02T12:07:06;24.40;;;14.20;;
76117;SDS011;64851;50.232;20.364;2024-03-02T12:10:01;26.20;;;16.10;;
76117;SDS011;64851;50.232;20.364;2024-03-02T12:12:38;24.10;;;15.20;;
76117;SDS011;64851;50.232;20.364;2024-03-02T12:15:26;26.30;;;15.20;;
76117;SDS011;64851;50.232;20.364;2024-03-02T12:18:04;25.70;;;14.80;;
76117;SDS011;64851;50.232;20.364;2024-03-02T12:20:53;25.70;;;15.60;;
76117;SDS011;64851;50.232;20.364;2024-03-02T12:23:31;23.50;;;14.50;;
76117;SDS011;64851;50.232;20.364;2024-03-02T12:26:28;28.70;;;14.00;;
76117;SDS011;64851;50.232;20.364;2024-03-02T12:29:25;21.10;;;13.10;;
76117;SDS011;64851;50.232;20.364;2024-03-02T12:32:20;22.30;;;14.30;;
76117;SDS011;64851;50.232;20.364;2024-03-02T12:35:15;31.00;;;13.80;;
76117;SDS011;64851;50.232;20.364;2024-03-02T12:37:56;24.20;;;14.20;;
76117;SDS011;64851;50.232;20.364;2024-03-02T12:40:38;17.90;;;10.50;;
76117;SDS011;64851;50.232;20.364;2024-03-02T12:43:19;23.60;;;13.20;;
76117;SDS011;64851;50.232;20.364;2024-03-02T12:46:00;24.70;;;14.00;;
76117;SDS011;64851;50.232;20.364;2024-03-02T12:48:41;21.50;;;12.30;;
76117;SDS011;64851;50.232;20.364;2024-03-02T12:51:23;23.40;;;14.20;;
76117;SDS011;64851;50.232;20.364;2024-03-02T12:54:04;19.30;;;13.00;;
76117;SDS011;64851;50.232;20.364;2024-03-02T12:56:53;20.60;;;12.60;;
76117;SDS011;64851;50.232;20.364;2024-03-02T12:59:28;21.40;;;13.40;;
76117;SDS011;64851;50.232;20.364;2024-03-02T13:02:18;21.40;;;13.30;;
76117;SDS011;64851;50.232;20.364;2024-03-02T13:04:54;24.50;;;13.90;;
76117;SDS011;64851;50.232;20.364;2024-03-02T13:07:42;21.60;;;13.40;;
76117;SDS011;64851;50.232;20.364;2024-03-02T13:10:23;22.00;;;14.10;;
76117;SDS011;64851;50.232;20.364;2024-03-02T13:13:04;20.80;;;12.90;;
76117;SDS011;64851;50.232;20.364;2024-03-02T13:15:47;23.60;;;14.60;;
76117;SDS011;64851;50.232;20.364;2024-03-02T13:18:35;21.30;;;13.70;;
76117;SDS011;64851;50.232;20.364;2024-03-02T13:21:09;23.60;;;13.80;;
76117;SDS011;64851;50.232;20.364;2024-03-02T13:23:57;28.30;;;15.20;;
76117;SDS011;64851;50.232;20.364;2024-03-02T13:26:33;21.60;;;13.70;;
76117;SDS011;64851;50.232;20.364;2024-03-02T13:29:23;21.20;;;13.50;;
76117;SDS011;64851;50.232;20.364;2024-03-02T13:31:58;22.10;;;13.50;;
76117;SDS011;64851;50.232;20.364;2024-03-02T13:34:53;23.20;;;13.00;;
76117;SDS011;64851;50.232;20.364;2024-03-02T13:37:27;21.80;;;13.50;;
76117;SDS011;64851;50.232;20.364;2024-03-02T13:40:19;18.90;;;12.10;;
76117;SDS011;64851;50.232;20.364;2024-03-02T13:42:54;20.30;;;13.20;;
76117;SDS011;64851;50.232;20.364;2024-03-02T13:45:44;21.50;;;12.50;;
76117;SDS011;64851;50.232;20.364;2024-03-02T13:48:19;21.20;;;12.90;;
76117;SDS011;64851;50.232;20.364;2024-03-02T13:51:07;22.00;;;12.80;;
76117;SDS011;64851;50.232;20.364;2024-03-02T13:53:42;22.30;;;12.60;;
76117;SDS011;64851;50.232;20.364;2024-03-02T13:56:31;22.50;;;13.00;;
76117;SDS011;64851;50.232;20.364;2024-03-02T13:59:07;25.40;;;14.80;;
76117;SDS011;64851;50.232;20.364;2024-03-02T14:02:03;25.20;;;14.40;;
76117;SDS011;64851;50.232;20.364;2024-03-02T14:04:59;23.70;;;13.50;;
76117;SDS011;64851;50.232;20.364;2024-03-02T14:07:35;22.70;;;13.30;;
76117;SDS011;64851;50.232;20.364;2024-03-02T14:10:22;24.50;;;13.50;;
76117;SDS011;64851;50.232;20.364;2024-03-02T14:12:58;22.40;;;13.40;;
76117;SDS011;64851;50.232;20.364;2024-03-02T14:15:46;27.60;;;15.30;;
76117;SDS011;64851;50.232;20.364;2024-03-02T14:18:20;26.90;;;15.30;;
76117;SDS011;64851;50.232;20.364;2024-03-02T14:21:09;39.80;;;24.30;;
76117;SDS011;64851;50.232;20.364;2024-03-02T14:23:43;30.40;;;16.90;;
76117;SDS011;64851;50.232;20.364;2024-03-02T14:26:39;33.20;;;19.10;;
76117;SDS011;64851;50.232;20.364;2024-03-02T14:29:42;30.60;;;17.70;;
76117;SDS011;64851;50.232;20.364;2024-03-02T14:32:24;31.30;;;18.20;;
76117;SDS011;64851;50.232;20.364;2024-03-02T14:35:06;36.90;;;21.30;;
76117;SDS011;64851;50.232;20.364;2024-03-02T14:37:51;28.70;;;16.20;;
76117;SDS011;64851;50.232;20.364;2024-03-02T14:40:32;30.70;;;19.40;;
76117;SDS011;64851;50.232;20.364;2024-03-02T14:43:13;29.60;;;15.90;;
76117;SDS011;64851;50.232;20.364;2024-03-02T14:46:01;34.70;;;20.80;;
76117;SDS011;64851;50.232;20.364;2024-03-02T14:48:36;32.20;;;20.10;;
76117;SDS011;64851;50.232;20.364;2024-03-02T14:51:32;33.20;;;19.70;;
76117;SDS011;64851;50.232;20.364;2024-03-02T14:54:27;28.60;;;17.70;;
76117;SDS011;64851;50.232;20.364;2024-03-02T14:57:08;27.10;;;16.30;;
76117;SDS011;64851;50.232;20.364;2024-03-02T14:59:49;28.80;;;15.40;;
76117;SDS011;64851;50.232;20.364;2024-03-02T15:02:30;42.90;;;23.40;;
76117;SDS011;64851;50.232;20.364;2024-03-02T15:05:18;41.10;;;21.80;;
76117;SDS011;64851;50.232;20.364;2024-03-02T15:07:52;37.10;;;22.20;;
76117;SDS011;64851;50.232;20.364;2024-03-02T15:10:43;40.00;;;23.50;;
76117;SDS011;64851;50.232;20.364;2024-03-02T15:13:19;40.90;;;23.40;;
76117;SDS011;64851;50.232;20.364;2024-03-02T15:16:07;39.30;;;22.50;;
76117;SDS011;64851;50.232;20.364;2024-03-02T15:18:43;102.10;;;48.50;;
76117;SDS011;64851;50.232;20.364;2024-03-02T15:21:32;88.20;;;41.40;;
76117;SDS011;64851;50.232;20.364;2024-03-02T15:24:07;67.20;;;32.80;;
76117;SDS011;64851;50.232;20.364;2024-03-02T15:26:57;49.50;;;27.70;;
76117;SDS011;64851;50.232;20.364;2024-03-02T15:29:33;43.50;;;22.20;;
76117;SDS011;64851;50.232;20.364;2024-03-02T15:32:23;36.70;;;20.00;;
76117;SDS011;64851;50.232;20.364;2024-03-02T15:34:58;29.90;;;16.00;;
76117;SDS011;64851;50.232;20.364;2024-03-02T15:37:46;36.30;;;21.90;;
76117;SDS011;64851;50.232;20.364;2024-03-02T15:40:27;41.70;;;27.90;;
76117;SDS011;64851;50.232;20.364;2024-03-02T15:43:08;54.00;;;32.00;;
76117;SDS011;64851;50.232;20.364;2024-03-02T15:45:50;64.70;;;37.80;;
76117;SDS011;64851;50.232;20.364;2024-03-02T15:48:33;53.80;;;31.20;;
76117;SDS011;64851;50.232;20.364;2024-03-02T15:51:14;62.70;;;33.80;;
76117;SDS011;64851;50.232;20.364;2024-03-02T15:53:58;53.50;;;29.50;;